createdAt,value
2023-01-25T00:00:06.840Z,0.00
2023-01-25T00:01:06.796Z,0.00
2023-01-25T00:02:06.818Z,0.00
2023-01-25T00:03:06.745Z,0.00
2023-01-25T00:04:06.655Z,0.00
2023-01-25T00:05:07.027Z,0.00
2023-01-25T00:06:06.567Z,0.00
2023-01-25T00:07:06.524Z,0.00
2023-01-25T00:08:06.480Z,0.00
2023-01-25T00:09:06.441Z,0.00
2023-01-25T00:10:06.390Z,0.00
2023-01-25T00:11:06.366Z,0.00
2023-01-25T00:12:06.296Z,0.00
2023-01-25T00:13:06.239Z,0.00
2023-01-25T00:14:06.200Z,0.00
2023-01-25T00:15:06.580Z,0.00
2023-01-25T00:16:06.130Z,0.00
2023-01-25T00:17:06.078Z,0.00
2023-01-25T00:18:06.015Z,0.00
2023-01-25T00:19:05.967Z,0.00
2023-01-25T00:20:05.941Z,0.00
2023-01-25T00:21:05.874Z,0.00
2023-01-25T00:22:05.833Z,0.00
2023-01-25T00:23:05.797Z,0.00
2023-01-25T00:24:05.861Z,0.00
2023-01-25T00:25:06.074Z,0.00
2023-01-25T00:26:05.648Z,0.00
2023-01-25T00:27:05.607Z,0.00
2023-01-25T00:28:05.565Z,0.00
2023-01-25T00:29:05.502Z,0.00
2023-01-25T00:30:05.472Z,0.00
2023-01-25T00:31:05.412Z,0.00
2023-01-25T00:32:05.547Z,0.00
2023-01-25T00:33:05.319Z,0.00
2023-01-25T00:34:05.278Z,0.00
2023-01-25T00:35:05.703Z,0.00
2023-01-25T00:36:05.197Z,0.00
2023-01-25T00:37:05.134Z,0.00
2023-01-25T00:38:05.090Z,0.00
2023-01-25T00:39:05.045Z,0.00
2023-01-25T00:40:04.999Z,0.00
2023-01-25T00:41:04.949Z,0.00
2023-01-25T00:42:04.916Z,0.00
2023-01-25T00:43:04.870Z,0.00
2023-01-25T00:44:04.811Z,0.00
2023-01-25T00:45:04.816Z,0.00
2023-01-25T00:46:04.779Z,0.00
2023-01-25T00:47:04.677Z,0.00
2023-01-25T00:48:04.642Z,0.00
2023-01-25T00:49:04.579Z,0.00
2023-01-25T00:50:04.544Z,0.00
2023-01-25T00:51:04.491Z,0.00
2023-01-25T00:52:04.442Z,0.00
2023-01-25T00:53:04.398Z,0.00
2023-01-25T00:54:04.362Z,0.00
2023-01-25T00:55:04.314Z,0.00
2023-01-25T00:56:04.270Z,0.00
2023-01-25T00:57:04.206Z,0.00
2023-01-25T00:58:04.177Z,0.00
2023-01-25T00:59:04.117Z,0.00
2023-01-25T01:00:04.079Z,0.00
2023-01-25T01:01:04.073Z,0.00
2023-01-25T01:02:03.985Z,0.00
2023-01-25T01:03:03.929Z,0.00
2023-01-25T01:04:05.709Z,0.00
2023-01-25T01:05:03.857Z,0.00
2023-01-25T01:06:03.808Z,0.00
2023-01-25T01:07:03.773Z,0.00
2023-01-25T01:08:03.712Z,0.00
2023-01-25T01:09:03.656Z,0.00
2023-01-25T01:10:03.623Z,0.00
2023-01-25T01:11:03.560Z,0.00
2023-01-25T01:12:03.521Z,0.00
2023-01-25T01:13:03.467Z,0.00
2023-01-25T01:14:03.425Z,0.00
2023-01-25T01:15:03.375Z,0.00
2023-01-25T01:16:03.349Z,0.00
2023-01-25T01:17:03.344Z,0.00
2023-01-25T01:18:03.248Z,0.00
2023-01-25T01:19:03.198Z,0.00
2023-01-25T01:20:03.179Z,0.00
2023-01-25T01:21:03.099Z,0.00
2023-01-25T01:22:03.060Z,0.00
2023-01-25T01:23:03.020Z,0.00
2023-01-25T01:24:03.016Z,0.00
2023-01-25T01:25:02.943Z,0.00
2023-01-25T01:26:02.877Z,0.00
2023-01-25T01:27:02.839Z,0.00
2023-01-25T01:28:02.778Z,0.00
2023-01-25T01:29:02.745Z,0.00
2023-01-25T01:30:02.713Z,0.00
2023-01-25T01:31:02.646Z,0.00
2023-01-25T01:32:02.680Z,0.00
2023-01-25T01:33:02.555Z,0.00
2023-01-25T01:34:02.513Z,0.00
2023-01-25T01:35:02.452Z,0.00
2023-01-25T01:36:02.408Z,0.00
2023-01-25T01:37:02.371Z,0.00
2023-01-25T01:38:02.339Z,0.00
2023-01-25T01:39:02.271Z,0.00
2023-01-25T01:40:02.228Z,0.00
2023-01-25T01:41:02.176Z,0.00
2023-01-25T01:42:02.157Z,0.00
2023-01-25T01:43:02.106Z,0.00
2023-01-25T01:44:02.040Z,0.00
2023-01-25T01:45:01.990Z,0.00
2023-01-25T01:46:01.985Z,0.00
2023-01-25T01:47:01.902Z,0.00
2023-01-25T01:48:01.866Z,0.00
2023-01-25T01:49:01.821Z,0.00
2023-01-25T01:50:01.786Z,0.00
2023-01-25T01:51:01.718Z,0.00
2023-01-25T01:52:01.670Z,0.00
2023-01-25T01:53:01.621Z,0.00
2023-01-25T01:54:01.611Z,0.00
2023-01-25T01:55:01.549Z,0.00
2023-01-25T01:56:01.487Z,0.00
2023-01-25T01:57:01.440Z,0.00
2023-01-25T01:58:01.397Z,0.00
2023-01-25T01:59:01.349Z,0.00
2023-01-25T02:00:01.326Z,0.00
2023-01-25T02:01:01.260Z,0.00
2023-01-25T02:02:01.213Z,0.00
2023-01-25T02:03:01.180Z,0.00
2023-01-25T02:04:01.133Z,0.00
2023-01-25T02:05:01.085Z,0.00
2023-01-25T02:06:01.035Z,0.00
2023-01-25T02:07:00.977Z,0.00
2023-01-25T02:08:00.936Z,0.00
2023-01-25T02:09:00.894Z,0.00
2023-01-25T02:10:00.839Z,0.00
2023-01-25T02:11:00.791Z,0.00
2023-01-25T02:12:00.758Z,0.00
2023-01-25T02:13:00.708Z,0.00
2023-01-25T02:14:00.663Z,0.00
2023-01-25T02:15:00.628Z,0.00
2023-01-25T02:16:00.720Z,0.00
2023-01-25T02:17:00.518Z,0.00
2023-01-25T02:18:00.473Z,0.00
2023-01-25T02:19:00.438Z,0.00
2023-01-25T02:20:00.379Z,0.00
2023-01-25T02:21:00.332Z,0.00
2023-01-25T02:22:00.292Z,0.00
2023-01-25T02:23:00.240Z,0.00
2023-01-25T02:24:00.216Z,0.00
2023-01-25T02:25:00.161Z,0.00
2023-01-25T02:26:00.128Z,0.00
2023-01-25T02:27:00.052Z,0.00
2023-01-25T02:28:00.010Z,0.00
2023-01-25T02:28:59.965Z,0.00
2023-01-25T02:29:59.917Z,0.00
2023-01-25T02:30:59.891Z,0.00
2023-01-25T02:31:59.894Z,0.00
2023-01-25T02:32:59.778Z,0.00
2023-01-25T02:33:59.732Z,0.00
2023-01-25T02:34:59.683Z,0.00
2023-01-25T02:35:59.634Z,0.00
2023-01-25T02:36:59.597Z,0.00
2023-01-25T02:37:59.560Z,0.00
2023-01-25T02:38:59.495Z,0.00
2023-01-25T02:39:59.447Z,0.00
2023-01-25T02:40:59.404Z,0.00
2023-01-25T02:41:59.366Z,0.00
2023-01-25T02:42:59.316Z,0.00
2023-01-25T02:43:59.281Z,0.00
2023-01-25T02:44:59.216Z,0.00
2023-01-25T02:45:59.213Z,0.00
2023-01-25T02:46:59.124Z,0.00
2023-01-25T02:47:59.095Z,0.00
2023-01-25T02:48:59.038Z,0.00
2023-01-25T02:49:58.992Z,0.00
2023-01-25T02:50:58.948Z,0.00
2023-01-25T02:51:58.901Z,0.00
2023-01-25T02:52:58.849Z,0.00
2023-01-25T02:53:58.814Z,0.00
2023-01-25T02:54:58.757Z,0.00
2023-01-25T02:55:58.713Z,0.00
2023-01-25T02:56:58.667Z,0.00
2023-01-25T02:57:58.619Z,0.00
2023-01-25T02:58:58.570Z,0.00
2023-01-25T02:59:58.549Z,0.00
2023-01-25T03:00:58.477Z,0.00
2023-01-25T03:01:58.526Z,0.00
2023-01-25T03:02:58.488Z,0.00
2023-01-25T03:03:58.362Z,0.00
2023-01-25T03:04:58.297Z,0.00
2023-01-25T03:05:58.254Z,0.00
2023-01-25T03:06:58.202Z,0.00
2023-01-25T03:07:58.162Z,0.00
2023-01-25T03:08:58.113Z,0.00
2023-01-25T03:09:58.080Z,0.00
2023-01-25T03:10:58.035Z,0.00
2023-01-25T03:11:57.974Z,0.00
2023-01-25T03:12:57.954Z,0.00
2023-01-25T03:13:57.882Z,0.00
2023-01-25T03:14:57.835Z,0.00
2023-01-25T03:15:57.845Z,0.00
2023-01-25T03:16:57.740Z,0.00
2023-01-25T03:17:57.701Z,0.00
2023-01-25T03:18:57.669Z,0.00
2023-01-25T03:19:57.617Z,0.00
2023-01-25T03:20:57.568Z,0.00
2023-01-25T03:21:57.519Z,0.00
2023-01-25T03:22:57.470Z,0.00
2023-01-25T03:23:57.456Z,0.00
2023-01-25T03:24:57.404Z,0.00
2023-01-25T03:25:57.331Z,0.00
2023-01-25T03:26:57.296Z,0.00
2023-01-25T03:27:57.246Z,0.00
2023-01-25T03:28:57.207Z,0.00
2023-01-25T03:29:57.144Z,0.00
2023-01-25T03:30:57.146Z,0.00
2023-01-25T03:31:57.156Z,0.00
2023-01-25T03:32:57.082Z,0.00
2023-01-25T03:33:56.967Z,0.00
2023-01-25T03:34:56.965Z,0.00
2023-01-25T03:35:56.906Z,0.00
2023-01-25T03:36:56.818Z,0.00
2023-01-25T03:37:56.779Z,0.00
2023-01-25T03:38:56.740Z,0.00
2023-01-25T03:39:56.686Z,0.00
2023-01-25T03:40:56.633Z,0.00
2023-01-25T03:41:56.592Z,0.00
2023-01-25T03:42:56.555Z,0.00
2023-01-25T03:43:56.502Z,0.00
2023-01-25T03:44:56.469Z,0.00
2023-01-25T03:45:56.415Z,0.00
2023-01-25T03:46:56.401Z,0.00
2023-01-25T03:47:56.319Z,0.00
2023-01-25T03:48:56.266Z,0.00
2023-01-25T03:49:56.270Z,0.00
2023-01-25T03:50:56.175Z,0.00
2023-01-25T03:51:56.131Z,0.00
2023-01-25T03:52:56.081Z,0.00
2023-01-25T03:53:56.051Z,0.00
2023-01-25T03:54:56.003Z,0.00
2023-01-25T03:55:55.947Z,0.00
2023-01-25T03:56:55.902Z,0.00
2023-01-25T03:57:55.862Z,0.00
2023-01-25T03:58:55.807Z,0.00
2023-01-25T03:59:55.766Z,0.00
2023-01-25T04:00:55.846Z,0.00
2023-01-25T04:01:55.768Z,0.00
2023-01-25T04:02:55.629Z,0.00
2023-01-25T04:03:55.575Z,0.00
2023-01-25T04:04:55.531Z,0.00
2023-01-25T04:05:55.489Z,0.00
2023-01-25T04:06:55.449Z,0.00
2023-01-25T04:07:55.402Z,0.00
2023-01-25T04:08:55.343Z,0.00
2023-01-25T04:09:55.303Z,0.00
2023-01-25T04:10:55.255Z,0.00
2023-01-25T04:11:55.206Z,0.00
2023-01-25T04:12:55.168Z,0.00
2023-01-25T04:13:55.117Z,0.00
2023-01-25T04:14:55.070Z,0.00
2023-01-25T04:15:55.021Z,0.00
2023-01-25T04:16:55.057Z,0.00
2023-01-25T04:17:54.939Z,0.00
2023-01-25T04:18:54.902Z,0.00
2023-01-25T04:19:54.837Z,0.00
2023-01-25T04:20:54.789Z,0.00
2023-01-25T04:21:54.745Z,0.00
2023-01-25T04:22:54.698Z,0.00
2023-01-25T04:23:54.708Z,0.00
2023-01-25T04:24:54.617Z,0.00
2023-01-25T04:25:54.575Z,0.00
2023-01-25T04:26:54.516Z,0.00
2023-01-25T04:27:54.479Z,0.00
2023-01-25T04:28:54.426Z,0.00
2023-01-25T04:29:54.376Z,0.00
2023-01-25T04:30:54.353Z,0.00
2023-01-25T04:31:54.353Z,0.00
2023-01-25T04:32:54.231Z,0.00
2023-01-25T04:33:54.187Z,0.00
2023-01-25T04:34:54.141Z,0.00
2023-01-25T04:35:54.120Z,0.00
2023-01-25T04:36:54.051Z,0.00
2023-01-25T04:37:54.009Z,0.00
2023-01-25T04:38:53.961Z,0.00
2023-01-25T04:39:53.909Z,0.00
2023-01-25T04:40:53.870Z,0.00
2023-01-25T04:41:53.827Z,0.00
2023-01-25T04:42:53.792Z,0.00
2023-01-25T04:44:03.210Z,0.00
2023-01-25T04:44:53.677Z,0.00
2023-01-25T04:45:53.693Z,0.00
2023-01-25T04:46:53.602Z,0.00
2023-01-25T04:47:53.541Z,0.00
2023-01-25T04:48:53.498Z,0.00
2023-01-25T04:49:53.459Z,0.00
2023-01-25T04:50:53.418Z,0.00
2023-01-25T04:51:53.353Z,0.00
2023-01-25T04:52:53.321Z,0.00
2023-01-25T04:53:53.265Z,0.00
2023-01-25T04:54:53.223Z,0.00
2023-01-25T04:55:53.178Z,0.00
2023-01-25T04:56:53.128Z,0.00
2023-01-25T04:57:53.085Z,0.00
2023-01-25T04:58:53.046Z,0.00
2023-01-25T04:59:52.980Z,0.00
2023-01-25T05:00:52.981Z,0.00
2023-01-25T05:01:52.891Z,0.00
2023-01-25T05:02:52.849Z,0.00
2023-01-25T05:03:52.811Z,0.00
2023-01-25T05:04:52.757Z,0.00
2023-01-25T05:05:52.706Z,0.00
2023-01-25T05:06:52.664Z,0.00
2023-01-25T05:07:52.610Z,0.00
2023-01-25T05:08:52.582Z,0.00
2023-01-25T05:09:52.520Z,0.00
2023-01-25T05:10:52.482Z,0.00
2023-01-25T05:11:52.443Z,0.00
2023-01-25T05:12:52.386Z,0.00
2023-01-25T05:13:52.341Z,0.00
2023-01-25T05:14:52.305Z,0.00
2023-01-25T05:15:52.247Z,0.00
2023-01-25T05:16:52.291Z,0.00
2023-01-25T05:17:52.151Z,0.00
2023-01-25T05:18:52.108Z,0.00
2023-01-25T05:19:52.082Z,0.00
2023-01-25T05:20:52.035Z,0.00
2023-01-25T05:21:51.968Z,0.00
2023-01-25T05:22:51.922Z,0.00
2023-01-25T05:23:51.903Z,0.00
2023-01-25T05:24:51.831Z,0.00
2023-01-25T05:25:51.786Z,0.00
2023-01-25T05:26:51.747Z,0.00
2023-01-25T05:27:51.693Z,0.00
2023-01-25T05:28:51.649Z,0.00
2023-01-25T05:29:51.606Z,0.00
2023-01-25T05:30:51.629Z,0.00
2023-01-25T05:31:51.552Z,0.00
2023-01-25T05:32:51.465Z,0.00
2023-01-25T05:33:51.414Z,0.00
2023-01-25T05:34:51.391Z,0.00
2023-01-25T05:35:51.340Z,0.00
2023-01-25T05:36:51.277Z,0.00
2023-01-25T05:37:51.238Z,0.00
2023-01-25T05:38:51.187Z,0.00
2023-01-25T05:39:51.729Z,0.00
2023-01-25T05:40:51.100Z,0.00
2023-01-25T05:41:51.043Z,0.00
2023-01-25T05:42:50.996Z,0.00
2023-01-25T05:43:50.965Z,0.00
2023-01-25T05:44:50.908Z,0.00
2023-01-25T05:45:50.905Z,0.00
2023-01-25T05:46:50.820Z,0.00
2023-01-25T05:47:50.762Z,0.00
2023-01-25T05:48:50.727Z,0.00
2023-01-25T05:49:50.679Z,0.00
2023-01-25T05:50:50.630Z,0.00
2023-01-25T05:51:50.577Z,0.00
2023-01-25T05:52:50.548Z,0.00
2023-01-25T05:53:50.492Z,0.00
2023-01-25T05:54:50.449Z,0.00
2023-01-25T05:55:50.407Z,0.00
2023-01-25T05:56:50.353Z,0.00
2023-01-25T05:57:50.304Z,0.00
2023-01-25T05:58:50.269Z,0.00
2023-01-25T05:59:50.214Z,0.00
2023-01-25T06:00:50.172Z,0.00
2023-01-25T06:01:50.138Z,0.00
2023-01-25T06:02:50.218Z,0.00
2023-01-25T06:03:50.028Z,0.00
2023-01-25T06:04:49.993Z,0.00
2023-01-25T06:05:49.932Z,0.00
2023-01-25T06:06:49.895Z,0.00
2023-01-25T06:07:49.850Z,0.00
2023-01-25T06:08:49.795Z,0.00
2023-01-25T06:09:49.747Z,0.00
2023-01-25T06:10:49.716Z,0.00
2023-01-25T06:11:49.654Z,0.00
2023-01-25T06:12:50.247Z,0.00
2023-01-25T06:13:49.573Z,0.00
2023-01-25T06:14:49.526Z,0.00
2023-01-25T06:15:49.498Z,0.00
2023-01-25T06:16:49.438Z,0.00
2023-01-25T06:17:49.377Z,0.00
2023-01-25T06:18:49.335Z,0.00
2023-01-25T06:19:49.291Z,0.00
2023-01-25T06:20:49.244Z,0.00
2023-01-25T06:21:49.195Z,0.00
2023-01-25T06:22:49.176Z,0.00
2023-01-25T06:23:49.172Z,0.00
2023-01-25T06:24:49.061Z,0.00
2023-01-25T06:25:49.046Z,0.00
2023-01-25T06:26:48.977Z,0.00
2023-01-25T06:27:48.918Z,0.00
2023-01-25T06:28:48.895Z,0.00
2023-01-25T06:29:48.829Z,0.00
2023-01-25T06:30:48.814Z,0.00
2023-01-25T06:31:48.751Z,0.00
2023-01-25T06:32:48.689Z,0.00
2023-01-25T06:33:48.662Z,0.00
2023-01-25T06:34:48.620Z,0.00
2023-01-25T06:35:48.550Z,0.00
2023-01-25T06:36:48.505Z,0.00
2023-01-25T06:37:48.455Z,0.00
2023-01-25T06:38:48.416Z,0.00
2023-01-25T06:39:48.375Z,0.00
2023-01-25T06:40:48.323Z,0.00
2023-01-25T06:41:48.275Z,0.00
2023-01-25T06:42:48.282Z,0.00
2023-01-25T06:43:48.276Z,0.00
2023-01-25T06:44:48.135Z,0.00
2023-01-25T06:45:48.106Z,0.00
2023-01-25T06:46:48.099Z,0.00
2023-01-25T06:47:48.003Z,0.00
2023-01-25T06:48:47.957Z,0.00
2023-01-25T06:49:47.911Z,0.00
2023-01-25T06:50:47.868Z,0.00
2023-01-25T06:51:47.823Z,0.00
2023-01-25T06:52:47.767Z,4.00
2023-01-25T06:53:47.721Z,0.00
2023-01-25T06:54:47.674Z,0.00
2023-01-25T06:55:47.626Z,4.00
2023-01-25T06:56:47.623Z,0.00
2023-01-25T06:57:47.543Z,4.00
2023-01-25T06:58:47.512Z,4.00
2023-01-25T06:59:47.445Z,4.00
2023-01-25T07:00:47.402Z,4.00
2023-01-25T07:01:47.392Z,8.00
2023-01-25T07:02:47.349Z,4.00
2023-01-25T07:03:47.271Z,4.00
2023-01-25T07:04:47.222Z,8.00
2023-01-25T07:05:47.177Z,8.00
2023-01-25T07:06:47.126Z,8.00
2023-01-25T07:07:47.076Z,12.00
2023-01-25T07:08:47.044Z,16.00
2023-01-25T07:09:46.985Z,16.00
2023-01-25T07:10:47.006Z,16.00
2023-01-25T07:11:46.894Z,20.00
2023-01-25T07:12:46.860Z,20.00
2023-01-25T07:13:46.830Z,24.00
2023-01-25T07:14:46.758Z,28.00
2023-01-25T07:15:46.735Z,28.00
2023-01-25T07:16:46.684Z,32.00
2023-01-25T07:17:46.613Z,36.00
2023-01-25T07:18:46.574Z,40.00
2023-01-25T07:19:46.542Z,40.00
2023-01-25T07:20:46.480Z,44.00
2023-01-25T07:21:46.441Z,48.00
2023-01-25T07:22:46.384Z,52.00
2023-01-25T07:23:46.396Z,56.00
2023-01-25T07:24:46.295Z,60.00
2023-01-25T07:25:46.246Z,64.00
2023-01-25T07:26:46.213Z,68.00
2023-01-25T07:27:46.152Z,76.00
2023-01-25T07:28:46.122Z,84.00
2023-01-25T07:29:46.061Z,92.00
2023-01-25T07:30:46.018Z,100.00
2023-01-25T07:31:46.054Z,104.00
2023-01-25T07:32:45.946Z,112.00
2023-01-25T07:33:45.876Z,120.00
2023-01-25T07:34:45.832Z,120.00
2023-01-25T07:35:45.784Z,128.00
2023-01-25T07:36:45.784Z,132.00
2023-01-25T07:37:45.693Z,140.00
2023-01-25T07:38:45.667Z,144.00
2023-01-25T07:39:45.615Z,152.00
2023-01-25T07:40:45.557Z,160.00
2023-01-25T07:41:45.506Z,168.00
2023-01-25T07:42:45.468Z,172.00
2023-01-25T07:43:45.414Z,180.00
2023-01-25T07:44:45.382Z,192.00
2023-01-25T07:45:45.323Z,204.00
2023-01-25T07:46:45.291Z,216.00
2023-01-25T07:47:45.233Z,228.00
2023-01-25T07:48:45.213Z,236.00
2023-01-25T07:49:45.139Z,248.00
2023-01-25T07:50:45.101Z,260.00
2023-01-25T07:51:45.059Z,264.00
2023-01-25T07:52:45.007Z,276.00
2023-01-25T07:53:44.965Z,288.00
2023-01-25T07:54:44.921Z,292.00
2023-01-25T07:55:44.882Z,292.00
2023-01-25T07:56:44.837Z,304.00
2023-01-25T07:57:44.769Z,312.00
2023-01-25T07:58:44.726Z,316.00
2023-01-25T07:59:44.685Z,324.00
2023-01-25T08:00:44.656Z,336.00
2023-01-25T08:01:44.614Z,348.00
2023-01-25T08:02:44.564Z,356.00
2023-01-25T08:03:44.518Z,368.00
2023-01-25T08:04:44.456Z,376.00
2023-01-25T08:05:44.406Z,384.00
2023-01-25T08:06:44.364Z,380.00
2023-01-25T08:07:44.314Z,392.00
2023-01-25T08:08:44.271Z,408.00
2023-01-25T08:09:44.233Z,424.00
2023-01-25T08:10:44.170Z,432.00
2023-01-25T08:11:44.129Z,444.00
2023-01-25T08:12:44.081Z,464.00
2023-01-25T08:13:44.036Z,480.00
2023-01-25T08:14:43.989Z,488.00
2023-01-25T08:15:43.955Z,504.00
2023-01-25T08:16:43.925Z,520.00
2023-01-25T08:17:43.859Z,532.00
2023-01-25T08:18:43.812Z,540.00
2023-01-25T08:19:43.758Z,552.00
2023-01-25T08:20:43.714Z,564.00
2023-01-25T08:21:43.682Z,572.00
2023-01-25T08:22:43.638Z,584.00
2023-01-25T08:23:43.574Z,600.00
2023-01-25T08:24:43.647Z,612.00
2023-01-25T08:25:43.495Z,632.00
2023-01-25T08:26:43.464Z,648.00
2023-01-25T08:27:43.396Z,652.00
2023-01-25T08:28:43.358Z,656.00
2023-01-25T08:29:43.295Z,660.00
2023-01-25T08:30:55.766Z,660.00
2023-01-25T08:31:43.234Z,668.00
2023-01-25T08:32:43.155Z,680.00
2023-01-25T08:33:43.120Z,696.00
2023-01-25T08:34:43.065Z,708.00
2023-01-25T08:35:43.044Z,724.00
2023-01-25T08:36:42.984Z,740.00
2023-01-25T08:37:43.009Z,748.00
2023-01-25T08:38:42.884Z,756.00
2023-01-25T08:39:42.834Z,772.00
2023-01-25T08:40:42.788Z,784.00
2023-01-25T08:41:42.785Z,784.00
2023-01-25T08:42:42.696Z,780.00
2023-01-25T08:43:42.652Z,808.00
2023-01-25T08:44:42.608Z,836.00
2023-01-25T08:45:42.557Z,844.00
2023-01-25T08:46:42.543Z,852.00
2023-01-25T08:47:42.479Z,872.00
2023-01-25T08:48:42.420Z,880.00
2023-01-25T08:49:42.389Z,888.00
2023-01-25T08:50:42.329Z,904.00
2023-01-25T08:51:42.280Z,916.00
2023-01-25T08:52:42.239Z,924.00
2023-01-25T08:53:42.193Z,936.00
2023-01-25T08:54:42.146Z,948.00
2023-01-25T08:55:42.116Z,948.00
2023-01-25T08:56:42.045Z,948.00
2023-01-25T08:57:42.013Z,960.00
2023-01-25T08:58:41.957Z,988.00
2023-01-25T08:59:41.918Z,1000.00
2023-01-25T09:00:41.866Z,1004.00
2023-01-25T09:01:41.837Z,1020.00
2023-01-25T09:02:41.772Z,1044.00
2023-01-25T09:03:41.771Z,1052.00
2023-01-25T09:04:41.689Z,1056.00
2023-01-25T09:05:41.648Z,1080.00
2023-01-25T09:06:41.600Z,1100.00
2023-01-25T09:07:41.559Z,1104.00
2023-01-25T09:08:41.503Z,1120.00
2023-01-25T09:09:41.461Z,1148.00
2023-01-25T09:10:41.409Z,1168.00
2023-01-25T09:11:41.361Z,1184.00
2023-01-25T09:12:41.326Z,1212.00
2023-01-25T09:13:41.272Z,1252.00
2023-01-25T09:14:41.228Z,1272.00
2023-01-25T09:15:41.179Z,1300.00
2023-01-25T09:16:41.131Z,1316.00
2023-01-25T09:17:41.091Z,1308.00
2023-01-25T09:18:41.052Z,1296.00
2023-01-25T09:19:41.004Z,1308.00
2023-01-25T09:20:40.950Z,1308.00
2023-01-25T09:21:40.929Z,1312.00
2023-01-25T09:22:40.853Z,1332.00
2023-01-25T09:23:51.001Z,1352.00
2023-01-25T09:24:40.806Z,1364.00
2023-01-25T09:25:40.728Z,1392.00
2023-01-25T09:26:40.896Z,1420.00
2023-01-25T09:27:40.628Z,1456.00
2023-01-25T09:28:40.578Z,1468.00
2023-01-25T09:29:43.774Z,1476.00
2023-01-25T09:30:47.178Z,1488.00
2023-01-25T09:31:41.118Z,1504.00
2023-01-25T09:32:40.504Z,1516.00
2023-01-25T09:33:40.354Z,1536.00
2023-01-25T09:34:40.301Z,1544.00
2023-01-25T09:35:40.263Z,1532.00
2023-01-25T09:36:40.261Z,1520.00
2023-01-25T09:37:40.191Z,1520.00
2023-01-25T09:38:40.137Z,1516.00
2023-01-25T09:39:40.084Z,1508.00
2023-01-25T09:40:40.033Z,1496.00
2023-01-25T09:41:39.987Z,1488.00
2023-01-25T09:42:39.942Z,1488.00
2023-01-25T09:43:39.892Z,1500.00
2023-01-25T09:44:39.845Z,1536.00
2023-01-25T09:45:39.799Z,1584.00
2023-01-25T09:46:39.809Z,1612.00
2023-01-25T09:47:39.721Z,1640.00
2023-01-25T09:48:39.658Z,1644.00
2023-01-25T09:49:39.624Z,1648.00
2023-01-25T09:50:39.573Z,1648.00
2023-01-25T09:51:39.527Z,1632.00
2023-01-25T09:52:39.511Z,1632.00
2023-01-25T09:53:39.439Z,1668.00
2023-01-25T09:54:46.630Z,1676.00
2023-01-25T09:55:39.345Z,1648.00
2023-01-25T09:56:39.294Z,1624.00
2023-01-25T09:57:39.248Z,1612.00
2023-01-25T09:58:39.220Z,1624.00
2023-01-25T09:59:39.166Z,1632.00
2023-01-25T10:00:39.125Z,1656.00
2023-01-25T10:01:39.469Z,1680.00
2023-01-25T10:02:39.109Z,1712.00
2023-01-25T10:03:38.990Z,1736.00
2023-01-25T10:04:38.938Z,1752.00
2023-01-25T10:05:38.884Z,1796.00
2023-01-25T10:06:40.619Z,1828.00
2023-01-25T10:07:38.789Z,1832.00
2023-01-25T10:08:38.766Z,1832.00
2023-01-25T10:09:38.704Z,1840.00
2023-01-25T10:10:38.655Z,1848.00
2023-01-25T10:11:38.615Z,1868.00
2023-01-25T10:12:38.560Z,1872.00
2023-01-25T10:13:38.537Z,1852.00
2023-01-25T10:14:39.237Z,1848.00
2023-01-25T10:15:38.497Z,1864.00
2023-01-25T10:16:38.419Z,1860.00
2023-01-25T10:17:38.346Z,1860.00
2023-01-25T10:18:38.328Z,1880.00
2023-01-25T10:19:38.782Z,1904.00
2023-01-25T10:20:38.215Z,1940.00
2023-01-25T10:21:38.154Z,2000.00
2023-01-25T10:22:38.117Z,2024.00
2023-01-25T10:23:38.062Z,2008.00
2023-01-25T10:24:38.020Z,1992.00
2023-01-25T10:25:38.000Z,1972.00
2023-01-25T10:26:37.929Z,1952.00
2023-01-25T10:27:37.882Z,1928.00
2023-01-25T10:28:37.839Z,1916.00
2023-01-25T10:29:37.787Z,1920.00
2023-01-25T10:30:37.769Z,1952.00
2023-01-25T10:31:37.725Z,1980.00
2023-01-25T10:32:47.554Z,2000.00
2023-01-25T10:33:38.704Z,2012.00
2023-01-25T10:34:54.360Z,2020.00
2023-01-25T10:35:41.251Z,2032.00
2023-01-25T10:36:37.481Z,2036.00
2023-01-25T10:37:37.442Z,2020.00
2023-01-25T10:38:37.376Z,2016.00
2023-01-25T10:39:37.333Z,2032.00
2023-01-25T10:40:37.297Z,2056.00
2023-01-25T10:41:37.246Z,2088.00
2023-01-25T10:42:37.201Z,2136.00
2023-01-25T10:43:37.173Z,2180.00
2023-01-25T10:44:46.300Z,2208.00
2023-01-25T10:45:37.059Z,2248.00
2023-01-25T10:46:37.021Z,2260.00
2023-01-25T10:47:36.966Z,2288.00
2023-01-25T10:48:36.930Z,2352.00
2023-01-25T10:49:36.885Z,2396.00
2023-01-25T10:50:36.833Z,2388.00
2023-01-25T10:51:36.784Z,2376.00
2023-01-25T10:52:36.766Z,2348.00
2023-01-25T10:53:36.705Z,2296.00
2023-01-25T10:54:36.648Z,2268.00
2023-01-25T10:55:36.602Z,2272.00
2023-01-25T10:56:36.558Z,2296.00
2023-01-25T10:57:36.515Z,2296.00
2023-01-25T10:58:36.476Z,2276.00
2023-01-25T10:59:36.426Z,2212.00
2023-01-25T11:00:36.373Z,2180.00
2023-01-25T11:01:36.383Z,2136.00
2023-01-25T11:02:36.317Z,2100.00
2023-01-25T11:03:36.284Z,2064.00
2023-01-25T11:04:36.229Z,2040.00
2023-01-25T11:05:36.150Z,2024.00
2023-01-25T11:06:36.109Z,2036.00
2023-01-25T11:07:36.059Z,2072.00
2023-01-25T11:08:36.019Z,2128.00
2023-01-25T11:09:35.973Z,2164.00
2023-01-25T11:10:35.922Z,2204.00
2023-01-25T11:11:35.876Z,2132.00
2023-01-25T11:12:35.827Z,2128.00
2023-01-25T11:13:35.791Z,2176.00
2023-01-25T11:14:35.735Z,2256.00
2023-01-25T11:15:35.729Z,2316.00
2023-01-25T11:16:35.644Z,2312.00
2023-01-25T11:17:35.600Z,2304.00
2023-01-25T11:18:35.575Z,2332.00
2023-01-25T11:19:35.534Z,2376.00
2023-01-25T11:20:35.480Z,2384.00
2023-01-25T11:21:35.442Z,2412.00
2023-01-25T11:22:35.371Z,2476.00
2023-01-25T11:23:35.335Z,2508.00
2023-01-25T11:24:35.284Z,2468.00
2023-01-25T11:25:35.254Z,2428.00
2023-01-25T11:26:35.189Z,2452.00
2023-01-25T11:27:35.147Z,2484.00
2023-01-25T11:28:35.105Z,2488.00
2023-01-25T11:29:35.059Z,2496.00
2023-01-25T11:30:35.011Z,2512.00
2023-01-25T11:31:35.439Z,2520.00
2023-01-25T11:32:34.923Z,2476.00
2023-01-25T11:33:34.892Z,2424.00
2023-01-25T11:34:34.823Z,2428.00
2023-01-25T11:35:34.780Z,2480.00
2023-01-25T11:36:34.734Z,2500.00
2023-01-25T11:37:34.708Z,2472.00
2023-01-25T11:38:34.644Z,2444.00
2023-01-25T11:39:34.598Z,2400.00
2023-01-25T11:40:34.553Z,2376.00
2023-01-25T11:41:35.235Z,2352.00
2023-01-25T11:42:34.482Z,2340.00
2023-01-25T11:43:34.447Z,2352.00
2023-01-25T11:44:34.370Z,2340.00
2023-01-25T11:45:34.325Z,2324.00
2023-01-25T11:46:34.299Z,2312.00
2023-01-25T11:47:34.258Z,2312.00
2023-01-25T11:48:34.190Z,2316.00
2023-01-25T11:49:34.827Z,2304.00
2023-01-25T11:50:34.099Z,2296.00
2023-01-25T11:51:34.049Z,2292.00
2023-01-25T11:52:34.004Z,2284.00
2023-01-25T11:53:33.960Z,2276.00
2023-01-25T11:54:33.927Z,2272.00
2023-01-25T11:55:33.876Z,2280.00
2023-01-25T11:56:33.828Z,2276.00
2023-01-25T11:57:33.781Z,2276.00
2023-01-25T11:58:33.729Z,2308.00
2023-01-25T11:59:33.691Z,2316.00
2023-01-25T12:00:33.652Z,2284.00
2023-01-25T12:01:33.635Z,2224.00
2023-01-25T12:02:33.583Z,2164.00
2023-01-25T12:03:33.556Z,2140.00
2023-01-25T12:04:33.460Z,2152.00
2023-01-25T12:05:33.427Z,2204.00
2023-01-25T12:06:33.382Z,2240.00
2023-01-25T12:07:33.323Z,2216.00
2023-01-25T12:08:33.270Z,2220.00
2023-01-25T12:09:33.229Z,2216.00
2023-01-25T12:10:33.182Z,2248.00
2023-01-25T12:11:33.144Z,2292.00
2023-01-25T12:12:33.096Z,2316.00
2023-01-25T12:13:33.053Z,2360.00
2023-01-25T12:14:33.018Z,2368.00
2023-01-25T12:15:32.986Z,2352.00
2023-01-25T12:16:32.908Z,2344.00
2023-01-25T12:17:32.864Z,2360.00
2023-01-25T12:18:32.827Z,2360.00
2023-01-25T12:19:32.774Z,2312.00
2023-01-25T12:20:32.733Z,2276.00
2023-01-25T12:21:32.687Z,2248.00
2023-01-25T12:22:32.642Z,2220.00
2023-01-25T12:23:32.600Z,2156.00
2023-01-25T12:24:32.559Z,2120.00
2023-01-25T12:25:32.499Z,2116.00
2023-01-25T12:26:32.459Z,2116.00
2023-01-25T12:27:32.418Z,2120.00
2023-01-25T12:28:32.682Z,2116.00
2023-01-25T12:29:32.323Z,2112.00
2023-01-25T12:30:32.337Z,2156.00
2023-01-25T12:31:32.282Z,2184.00
2023-01-25T12:32:32.185Z,2156.00
2023-01-25T12:33:32.135Z,2136.00
2023-01-25T12:34:32.094Z,2124.00
2023-01-25T12:35:32.044Z,2116.00
2023-01-25T12:36:32.013Z,2076.00
2023-01-25T12:37:31.952Z,2036.00
2023-01-25T12:38:31.905Z,2040.00
2023-01-25T12:39:31.864Z,2048.00
2023-01-25T12:40:31.823Z,2012.00
2023-01-25T12:41:31.785Z,1980.00
2023-01-25T12:42:31.724Z,1992.00
2023-01-25T12:43:31.686Z,1992.00
2023-01-25T12:44:31.647Z,1996.00
2023-01-25T12:45:31.598Z,2020.00
2023-01-25T12:46:31.549Z,2024.00
2023-01-25T12:47:31.507Z,2028.00